Time;durP1;ratioP1;P1;durP2;ratioP2;P2;SDS_P1;SDS_P2;PMS_P1;PMS_P2;Temp;Humidity;BMP_temperature;BMP_pressure;BME280_temperature;BME280_humidity;BME280_pressure;Samples;Min_cycle;Max_cycle;Signal;HPM_P1;HPM_P2
2022/05/29 00:01:50;;;;;;;16.98;7.63;;;;;;;17.99;74.99;96037.81;5097221;28;19915;-63
2022/05/29 00:04:16;;;;;;;18.23;6.70;;;;;;;17.86;75.60;96035.25;5096356;28;20069;-63
2022/05/29 00:06:44;;;;;;;14.32;6.57;;;;;;;17.86;75.91;96031.75;5096179;28;20024;-63
2022/05/29 00:09:13;;;;;;;20.27;7.25;;;;;;;17.84;75.96;96033.66;5096244;28;20031;-63
2022/05/29 00:11:39;;;;;;;17.17;7.18;;;;;;;17.87;76.40;96028.16;5096226;28;20035;-63
2022/05/29 00:14:05;;;;;;;17.67;7.15;;;;;;;17.89;76.28;96018.31;5111091;28;20016;-63
2022/05/29 00:16:31;;;;;;;17.55;6.95;;;;;;;17.83;76.45;96032.84;5106762;27;20032;-63
2022/05/29 00:18:57;;;;;;;17.70;7.07;;;;;;;17.82;76.49;96047.00;5096214;28;20484;-63
2022/05/29 00:21:23;;;;;;;16.58;7.57;;;;;;;17.78;76.93;96051.72;5096083;28;20108;-63
2022/05/29 00:23:49;;;;;;;15.50;6.93;;;;;;;17.80;76.91;96051.59;5097079;28;20038;-63
2022/05/29 00:26:17;;;;;;;15.30;7.10;;;;;;;17.73;76.35;96053.84;5095932;28;20024;-63
2022/05/29 00:28:43;;;;;;;13.10;6.63;;;;;;;17.65;76.86;96048.28;5096969;28;20031;-64
2022/05/29 00:31:10;;;;;;;14.05;6.78;;;;;;;17.51;77.00;96039.59;5098584;28;20028;-63
2022/05/29 00:33:35;;;;;;;17.35;8.38;;;;;;;17.49;76.85;96024.81;5096574;28;20020;-63
2022/05/29 00:36:02;;;;;;;15.15;7.25;;;;;;;17.47;76.84;96024.06;5095743;28;20027;-63
2022/05/29 00:38:28;;;;;;;13.98;6.40;;;;;;;17.41;76.72;96028.84;5095585;28;20051;-63
2022/05/29 00:41:24;;;;;;;14.82;7.90;;;;;;;17.26;77.14;96020.25;5096123;28;20032;-62
2022/05/29 00:44:20;;;;;;;12.85;6.93;;;;;;;17.26;77.83;96001.75;5096471;28;20032;-63
2022/05/29 00:46:58;;;;;;;19.83;8.52;;;;;;;17.23;77.47;95999.34;5095731;28;20416;-63
2022/05/29 00:49:35;;;;;;;20.77;7.00;;;;;;;17.21;77.14;96001.25;5095231;28;20044;-63
2022/05/29 00:52:06;;;;;;;15.25;7.07;;;;;;;17.23;76.77;96011.69;5103729;28;20104;-63
2022/05/29 00:54:43;;;;;;;;;;;;;;;17.20;76.46;96009.28;5114559;28;20020;-63
2022/05/29 00:57:18;;;;;;;18.90;6.30;;;;;;;17.05;76.70;95994.44;5115563;28;19915;-63
2022/05/29 00:59:45;;;;;;;14.23;7.47;;;;;;;16.89;76.93;95989.38;5115800;27;20031;-63
2022/05/29 01:02:10;;;;;;;14.13;7.00;;;;;;;16.79;77.46;95994.50;5115741;27;20423;-62
2022/05/29 01:04:38;;;;;;;14.10;6.70;;;;;;;16.82;77.25;95985.50;5098785;28;20017;-63
2022/05/29 01:07:09;;;;;;;16.38;7.18;;;;;;;16.77;77.35;95964.72;5096299;28;20073;-63
2022/05/29 01:09:38;;;;;;;17.38;6.63;;;;;;;16.65;77.52;95974.38;5102441;28;20114;-63
2022/05/29 01:12:21;;;;;;;12.60;6.07;;;;;;;16.52;78.00;95968.28;5107103;28;20550;-63
2022/05/29 01:15:07;;;;;;;19.27;7.15;;;;;;;16.57;77.88;95960.03;5094971;28;20055;-63
2022/05/29 01:17:54;;;;;;;15.20;7.13;;;;;;;16.47;77.94;95952.78;5096017;28;20032;-63
2022/05/29 01:20:45;;;;;;;17.05;6.30;;;;;;;16.26;78.13;95955.16;5094855;28;20039;-63
2022/05/29 01:23:22;;;;;;;;;;;;;;;16.12;78.26;95954.31;5095326;28;20032;-62
2022/05/29 01:26:04;;;;;;;14.93;6.72;;;;;;;15.99;79.08;95956.97;5107944;28;19919;-62
2022/05/29 01:28:56;;;;;;;15.65;6.72;;;;;;;15.96;79.20;95941.38;5111793;28;20046;-63
2022/05/29 01:31:34;;;;;;;13.45;6.53;;;;;;;15.88;79.36;95941.84;5100637;28;20080;-62
2022/05/29 01:34:02;;;;;;;17.65;6.45;;;;;;;15.91;79.22;95946.91;5114746;28;20481;-62
2022/05/29 01:36:35;;;;;;;15.35;7.03;;;;;;;15.87;78.96;95950.69;5115092;28;20076;-63
2022/05/29 01:39:09;;;;;;;10.93;5.05;;;;;;;15.80;78.97;95952.06;5113270;28;20028;-63
2022/05/29 01:41:39;;;;;;;14.38;5.95;;;;;;;15.77;78.70;95947.00;5114450;28;20063;-62
2022/05/29 01:44:22;;;;;;;18.52;6.25;;;;;;;15.73;78.83;95941.13;5114951;28;20032;-63
2022/05/29 01:46:55;;;;;;;17.30;5.95;;;;;;;15.60;79.59;95946.38;5114533;28;20389;-62
2022/05/29 01:49:28;;;;;;;15.82;6.35;;;;;;;15.68;79.05;95947.66;5112704;28;20077;-63
2022/05/29 01:52:03;;;;;;;12.65;6.07;;;;;;;15.68;79.17;95939.75;5110316;28;20039;-63
2022/05/29 01:54:29;;;;;;;13.98;5.97;;;;;;;15.63;79.17;95947.97;5094296;28;20032;-63
2022/05/29 01:57:13;;;;;;;13.23;5.70;;;;;;;15.49;79.25;95955.00;5094234;28;20169;-63
2022/05/29 02:00:11;;;;;;;14.65;5.38;;;;;;;15.33;80.76;95967.53;5094212;28;20028;-63
2022/05/29 02:02:41;;;;;;;12.35;6.30;;;;;;;15.21;81.48;95970.03;5081308;28;20036;-63
2022/05/29 02:05:14;;;;;;;19.08;5.80;;;;;;;15.31;81.44;95975.53;5114402;28;20038;-63
2022/05/29 02:07:48;;;;;;;14.73;6.22;;;;;;;15.35;81.38;95984.09;5114415;28;20496;-62
2022/05/29 02:10:23;;;;;;;13.65;6.40;;;;;;;15.36;81.05;95978.72;5114489;28;20111;-63
2022/05/29 02:13:02;;;;;;;15.15;5.50;;;;;;;15.40;79.85;95984.59;5101920;28;20064;-63
2022/05/29 02:16:01;;;;;;;14.07;5.70;;;;;;;15.33;79.73;95993.88;5110289;28;20077;-63
2022/05/29 02:19:00;;;;;;;10.45;5.38;;;;;;;15.32;80.23;96002.72;5093613;28;20036;-64
2022/05/29 02:21:39;;;;;;;16.30;6.22;;;;;;;15.35;79.46;96018.34;5094863;28;20036;-63
2022/05/29 02:24:10;;;;;;;16.83;5.53;;;;;;;15.31;79.37;96028.22;5093730;28;20036;-63
2022/05/29 02:26:41;;;;;;;15.10;5.00;;;;;;;15.38;79.27;96037.41;5093905;28;20477;-63
2022/05/29 02:29:09;;;;;;;;;;;;;;;15.45;78.95;96040.50;5095077;28;20466;-63
2022/05/29 02:31:46;;;;;;;9.25;4.40;;;;;;;15.40;78.75;96048.72;5093839;28;20479;-64
2022/05/29 02:34:33;;;;;;;10.70;5.45;;;;;;;15.34;79.51;96062.28;5093563;28;20063;-63
2022/05/29 02:37:09;;;;;;;12.13;5.57;;;;;;;15.15;80.45;96068.72;5093506;28;20539;-63
2022/05/29 02:40:00;;;;;;;14.10;5.30;;;;;;;15.19;80.44;96084.34;5111162;28;20032;-63
2022/05/29 02:42:47;;;;;;;14.75;6.15;;;;;;;15.34;80.78;96087.78;5112045;28;20027;-63
2022/05/29 02:45:25;;;;;;;12.60;5.25;;;;;;;15.37;80.47;96075.25;5113766;28;20035;-63
2022/05/29 02:48:08;;;;;;;13.13;5.40;;;;;;;15.38;80.42;96073.47;5112216;28;20420;-63
2022/05/29 02:50:41;;;;;;;7.90;5.22;;;;;;;15.43;80.56;96081.91;5113572;28;20063;-63
2022/05/29 02:53:11;;;;;;;12.05;5.00;;;;;;;15.48;80.36;96087.75;5109016;28;20027;-63
2022/05/29 02:55:38;;;;;;;16.08;5.65;;;;;;;15.51;80.21;96097.22;5113382;28;20065;-63
2022/05/29 02:58:08;;;;;;;18.80;5.30;;;;;;;15.44;80.02;96103.84;5113507;28;20118;-63
2022/05/29 03:00:47;;;;;;;7.65;5.18;;;;;;;15.51;80.74;96116.50;5113362;28;20023;-62
2022/05/29 03:03:22;;;;;;;14.90;5.70;;;;;;;15.66;80.79;96122.56;5113623;28;20056;-62
2022/05/29 03:06:16;;;;;;;9.93;5.22;;;;;;;15.69;80.24;96120.69;5111493;28;20070;-63
2022/05/29 03:08:57;;;;;;;7.93;4.57;;;;;;;15.66;80.23;96124.38;5089199;28;20039;-63
2022/05/29 03:11:37;;;;;;;16.65;5.70;;;;;;;15.53;80.43;96125.16;5113683;28;20023;-63
2022/05/29 03:14:24;;;;;;;14.75;5.20;;;;;;;15.52;80.56;96133.19;5101680;28;20553;-63
2022/05/29 03:17:11;;;;;;;10.52;4.68;;;;;;;15.44;81.99;96099.41;5092921;28;20088;-63
2022/05/29 03:19:56;;;;;;;14.10;4.80;;;;;;;15.39;81.31;96077.78;5092937;28;20040;-63
2022/05/29 03:22:42;;;;;;;13.13;5.05;;;;;;;15.40;80.70;96053.97;5092949;28;20118;-63
2022/05/29 03:25:39;;;;;;;17.58;4.68;;;;;;;15.66;80.03;96048.75;5102506;28;20554;-63
2022/05/29 03:28:13;;;;;;;10.85;4.60;;;;;;;15.85;79.74;96058.09;5111533;28;20040;-64
2022/05/29 03:30:41;;;;;;;16.20;5.82;;;;;;;15.99;80.02;96044.00;5112936;28;20384;-63
2022/05/29 03:33:09;;;;;;;16.38;5.47;;;;;;;16.10;79.73;96038.00;5113370;28;20049;-63
2022/05/29 03:35:53;;;;;;;11.80;4.68;;;;;;;16.19;80.17;96023.31;5109459;28;20065;-64
2022/05/29 03:38:19;;;;;;;18.27;5.93;;;;;;;16.27;80.37;96021.00;5092964;28;20054;-64
2022/05/29 03:40:46;;;;;;;15.82;6.93;;;;;;;16.41;80.21;96009.47;5092886;28;20029;-63
2022/05/29 03:43:12;;;;;;;15.73;5.32;;;;;;;16.53;78.98;95999.03;5092714;28;20481;-64
2022/05/29 03:45:37;;;;;;;8.73;5.05;;;;;;;16.60;78.64;95986.22;5092809;28;20073;-63
2022/05/29 03:48:04;;;;;;;13.80;5.57;;;;;;;16.62;78.28;95998.34;5093727;28;20051;-63
2022/05/29 03:50:29;;;;;;;15.98;5.03;;;;;;;16.60;78.13;96028.44;5092578;28;20066;-63
2022/05/29 03:52:55;;;;;;;10.63;5.20;;;;;;;16.67;78.38;96072.81;5093792;28;20028;-63
2022/05/29 03:55:24;;;;;;;11.55;4.60;;;;;;;16.73;78.56;96094.44;5105977;28;20020;-64
2022/05/29 03:57:50;;;;;;;15.45;5.72;;;;;;;16.75;78.99;96108.38;5110497;28;20423;-64
2022/05/29 04:00:18;;;;;;;11.30;5.78;;;;;;;16.76;79.62;96128.56;5111165;28;20024;-64
2022/05/29 04:02:44;;;;;;;16.67;5.35;;;;;;;16.83;79.55;96140.41;5092347;28;20424;-63
2022/05/29 04:05:19;;;;;;;15.00;6.32;;;;;;;16.83;79.53;96144.81;5092680;28;20469;-64
2022/05/29 04:13:16;;;;;;;10.93;6.15;;;;;;;16.58;81.34;96091.91;5098273;28;20062;-63
2022/05/29 04:15:45;;;;;;;15.65;7.15;;;;;;;16.51;82.09;96110.00;5112561;28;20023;-63
2022/05/29 04:18:15;;;;;;;13.52;7.22;;;;;;;16.58;82.34;96120.97;5113764;28;20358;-63
2022/05/29 04:20:42;;;;;;;15.98;6.78;;;;;;;16.60;82.86;96113.78;5116584;28;20051;-63
2022/05/29 04:23:08;;;;;;;17.98;6.97;;;;;;;16.60;83.29;96115.56;5101571;28;20032;-63
2022/05/29 04:25:33;;;;;;;15.68;6.93;;;;;;;16.54;83.13;96116.84;5109572;28;20020;-63
2022/05/29 04:28:01;;;;;;;14.85;6.22;;;;;;;16.46;83.47;96095.44;5115976;28;20518;-63
2022/05/29 04:30:27;;;;;;;15.77;7.35;;;;;;;16.41;84.08;96067.53;5098045;28;20040;-63
2022/05/29 04:33:02;;;;;;;12.98;5.90;;;;;;;16.41;83.67;96049.06;5095807;28;20090;-63
2022/05/29 04:35:50;;;;;;;11.80;6.80;;;;;;;16.38;84.34;96033.44;5097133;28;20690;-63
2022/05/29 04:38:17;;;;;;;16.35;6.93;;;;;;;16.39;84.47;96026.38;5095867;28;20111;-63
2022/05/29 04:40:43;;;;;;;13.80;6.63;;;;;;;16.33;84.61;96030.28;5096624;28;20027;-63
2022/05/29 04:43:11;;;;;;;14.18;6.65;;;;;;;16.38;85.31;96020.22;5095653;28;20052;-63
2022/05/29 04:45:41;;;;;;;11.60;6.30;;;;;;;16.47;85.06;96018.78;5106221;28;20358;-63
2022/05/29 04:48:07;;;;;;;15.20;6.70;;;;;;;16.50;85.20;96002.69;5115867;28;20036;-63
2022/05/29 04:50:33;;;;;;;14.40;6.82;;;;;;;16.50;85.67;95983.41;5113896;28;20040;-63
2022/05/29 04:52:58;;;;;;;16.73;7.15;;;;;;;16.52;85.63;95971.75;5111257;28;20481;-63
2022/05/29 04:55:24;;;;;;;13.48;6.20;;;;;;;16.51;85.79;95942.84;5102453;28;20023;-63
2022/05/29 04:57:50;;;;;;;14.52;6.97;;;;;;;16.45;86.22;95924.78;5113822;28;20023;-63
2022/05/29 05:00:16;;;;;;;14.88;7.53;;;;;;;16.50;87.24;95914.75;5113961;28;20102;-63
2022/05/29 05:02:42;;;;;;;16.98;7.53;;;;;;;16.58;86.42;95903.66;5115620;27;20354;-63
2022/05/29 05:05:09;;;;;;;19.83;7.47;;;;;;;16.84;86.47;95901.75;5115389;28;20066;-62
2022/05/29 05:07:35;;;;;;;19.92;5.90;;;;;;;17.25;84.11;95906.75;5115630;28;20016;-63
2022/05/29 05:10:06;;;;;;;14.85;6.30;;;;;;;17.53;83.17;95894.06;5115244;28;20103;-63
2022/05/29 05:12:31;;;;;;;17.83;6.50;;;;;;;17.81;81.42;95907.78;5113597;28;20032;-62
2022/05/29 05:14:57;;;;;;;12.30;5.22;;;;;;;18.01;78.59;95913.34;5103336;28;20031;-63
2022/05/29 05:17:22;;;;;;;11.18;5.63;;;;;;;18.30;77.67;95923.44;5094884;28;20028;-63
2022/05/29 05:19:48;;;;;;;12.13;5.97;;;;;;;18.69;80.08;95937.13;5109685;28;20072;-63
2022/05/29 05:22:14;;;;;;;14.60;5.22;;;;;;;19.25;78.68;95954.81;5111514;28;20119;-62
2022/05/29 05:24:39;;;;;;;14.45;5.38;;;;;;;19.83;73.84;95967.66;5114971;28;20374;-63
2022/05/29 05:27:07;;;;;;;10.43;5.35;;;;;;;20.54;72.30;95969.69;5103095;28;20043;-63
2022/05/29 05:29:33;;;;;;;11.18;4.65;;;;;;;21.27;65.81;95971.25;5094860;28;20382;-64
2022/05/29 05:31:59;;;;;;;10.07;4.30;;;;;;;21.74;66.22;95966.19;5095686;28;20040;-64
2022/05/29 05:34:27;;;;;;;11.82;4.38;;;;;;;21.93;65.22;95979.50;5094560;28;20059;-64
2022/05/29 05:36:52;;;;;;;12.70;4.05;;;;;;;22.11;63.03;95985.88;5095603;28;20051;-64
2022/05/29 05:39:20;;;;;;;7.72;4.10;;;;;;;22.19;64.71;95999.34;5094466;28;20051;-64
2022/05/29 05:41:45;;;;;;;12.35;4.30;;;;;;;22.41;64.61;95992.81;5094380;28;20084;-64
2022/05/29 05:44:11;;;;;;;14.07;4.60;;;;;;;22.83;63.59;95993.34;5094451;28;20024;-64
2022/05/29 05:46:42;;;;;;;12.15;4.38;;;;;;;23.37;62.60;95984.59;5094489;28;20024;-64
2022/05/29 05:49:08;;;;;;;7.75;3.55;;;;;;;23.63;59.51;95986.47;5094106;28;20024;-64
2022/05/29 05:51:33;;;;;;;14.85;3.60;;;;;;;23.92;60.22;95987.22;5094336;28;20028;-63
2022/05/29 05:53:59;;;;;;;14.05;4.10;;;;;;;24.27;58.03;95985.47;5103119;28;20020;-64
2022/05/29 05:56:25;;;;;;;7.78;4.18;;;;;;;24.56;55.67;95981.59;5111203;28;20024;-63
2022/05/29 05:58:50;;;;;;;13.50;3.90;;;;;;;24.69;53.90;95986.53;5102546;27;20028;-63
2022/05/29 06:01:17;;;;;;;9.38;4.45;;;;;;;24.85;55.53;95979.53;5105925;28;20377;-63
2022/05/29 06:03:44;;;;;;;10.45;4.40;;;;;;;24.89;55.70;95977.44;5094175;28;20432;-63
2022/05/29 06:06:10;;;;;;;12.23;4.80;;;;;;;24.85;56.24;95971.53;5093986;28;20093;-62
2022/05/29 06:08:36;;;;;;;12.30;3.85;;;;;;;24.73;56.17;95973.66;5095118;28;20133;-63
2022/05/29 06:11:01;;;;;;;14.07;4.25;;;;;;;24.35;52.70;95963.31;5093809;28;20040;-63
2022/05/29 06:13:27;;;;;;;9.93;4.43;;;;;;;23.96;54.79;95976.06;5093932;28;20071;-63
2022/05/29 06:15:53;;;;;;;10.20;4.53;;;;;;;23.60;55.90;95971.63;5113427;28;20028;-63
2022/05/29 06:18:19;;;;;;;10.75;4.18;;;;;;;23.53;56.00;95961.72;5112896;28;20068;-64
2022/05/29 06:20:46;;;;;;;10.50;5.03;;;;;;;23.34;58.24;95987.53;5093968;28;20032;-69
2022/05/29 06:23:12;;;;;;;12.15;4.00;;;;;;;23.27;57.72;95994.47;5094715;28;20026;-61
2022/05/29 06:25:42;;;;;;;8.68;5.15;;;;;;;22.94;57.09;96003.78;5101781;28;20053;-60
2022/05/29 06:28:08;;;;;;;10.85;4.78;;;;;;;22.54;58.02;96002.28;5107729;28;20016;-62
2022/05/29 06:30:35;;;;;;;7.43;4.00;;;;;;;22.28;59.65;96006.47;5093621;28;20062;-63
2022/05/29 06:33:01;;;;;;;11.45;4.70;;;;;;;22.09;61.02;96013.50;5092395;28;20466;-60
2022/05/29 06:35:28;;;;;;;12.65;4.72;;;;;;;22.18;60.29;96017.13;5093583;28;20150;-62
2022/05/29 06:37:54;;;;;;;9.68;4.55;;;;;;;22.36;61.99;96013.69;5093469;28;20020;-61
2022/05/29 06:40:21;;;;;;;13.30;5.13;;;;;;;22.49;59.63;96017.88;5111599;28;20031;-64
2022/05/29 06:42:46;;;;;;;14.80;4.82;;;;;;;22.34;61.04;96019.19;5113586;28;20035;-63
2022/05/29 06:45:13;;;;;;;14.02;5.05;;;;;;;22.27;61.43;96030.56;5113734;28;20110;-60
2022/05/29 06:47:39;;;;;;;14.35;4.55;;;;;;;21.96;62.38;96034.25;5113850;28;20024;-61
2022/05/29 06:50:08;;;;;;;14.00;5.30;;;;;;;21.98;60.83;96040.31;5111077;28;20100;-61
2022/05/29 06:52:33;;;;;;;15.30;5.57;;;;;;;22.15;60.90;96040.56;5113240;28;20038;-66
2022/05/29 06:55:00;;;;;;;9.48;5.15;;;;;;;22.62;58.67;96053.06;5113658;28;20015;-58
2022/05/29 06:57:44;;;;;;;12.02;5.15;;;;;;;22.92;60.88;96059.13;5113700;28;20028;-61
2022/05/29 07:08:37;;;;;;;13.93;5.43;;;;;;;22.95;57.35;96065.97;5104698;28;20092;-59
2022/05/29 07:11:07;;;;;;;9.57;5.30;;;;;;;22.90;60.34;96063.75;5113407;28;20019;-61
2022/05/29 07:13:34;;;;;;;10.02;5.15;;;;;;;22.96;60.08;96059.63;5113577;28;20413;-62
2022/05/29 07:16:01;;;;;;;13.70;5.53;;;;;;;22.92;59.62;96045.78;5113280;28;20115;-60
2022/05/29 07:18:27;;;;;;;17.80;6.30;;;;;;;22.96;58.55;96048.97;5104977;28;20077;-61
2022/05/29 07:20:54;;;;;;;13.32;6.10;;;;;;;23.28;58.03;96046.84;5093082;28;20016;-60
2022/05/29 07:23:19;;;;;;;14.75;6.63;;;;;;;23.26;57.15;96046.16;5092956;28;20039;-61
2022/05/29 07:25:45;;;;;;;14.63;6.20;;;;;;;23.23;58.75;96036.63;5092703;28;20028;-64
2022/05/29 07:28:11;;;;;;;12.00;5.60;;;;;;;23.73;57.12;96035.31;5111248;28;20024;-65
2022/05/29 07:30:37;;;;;;;16.20;5.70;;;;;;;24.30;57.10;96041.28;5113335;28;20073;-64
2022/05/29 07:33:04;;;;;;;16.05;6.35;;;;;;;24.11;57.29;96035.09;5113274;28;20055;-65
2022/05/29 07:35:29;;;;;;;13.60;5.43;;;;;;;23.71;54.94;96013.25;5113257;28;20381;-60
2022/05/29 07:37:56;;;;;;;18.27;5.80;;;;;;;24.02;56.53;96011.97;5111218;28;20028;-61
2022/05/29 07:40:23;;;;;;;18.90;6.10;;;;;;;24.25;56.13;96006.16;5095587;28;20025;-65
2022/05/29 07:45:37;;;;;;;11.23;5.13;;;;;;;24.83;53.99;96017.13;5113629;28;20388;-61
2022/05/29 07:48:04;;;;;;;18.70;5.68;;;;;;;24.81;55.99;96011.13;5111374;28;20024;-62
2022/05/29 07:50:30;;;;;;;14.23;4.95;;;;;;;25.19;53.49;96009.94;5110103;28;20044;-60
2022/05/29 07:52:56;;;;;;;8.10;5.10;;;;;;;25.35;54.71;96020.66;5108074;27;20097;-60
2022/05/29 07:55:23;;;;;;;16.67;6.45;;;;;;;25.44;53.46;96012.66;5097737;28;20154;-60
2022/05/29 07:57:49;;;;;;;15.43;5.57;;;;;;;25.45;52.73;96014.31;5116879;28;20030;-61
2022/05/29 08:00:18;;;;;;;13.98;6.28;;;;;;;25.32;56.01;96030.88;5116919;28;20027;-61
2022/05/29 08:02:44;;;;;;;17.98;6.60;;;;;;;25.30;54.73;96038.22;5104016;28;20157;-58
2022/05/29 08:05:15;;;;;;;9.07;5.22;;;;;;;25.63;52.96;96034.78;5103030;28;20047;-62
2022/05/29 08:07:42;;;;;;;12.45;5.45;;;;;;;25.51;50.22;96032.41;5116837;28;20035;-61
2022/05/29 08:10:10;;;;;;;11.38;5.85;;;;;;;25.09;52.72;96021.63;5116745;28;20023;-61
2022/05/29 08:12:36;;;;;;;22.85;6.28;;;;;;;24.72;52.99;96028.94;5116630;28;20027;-66
2022/05/29 08:15:02;;;;;;;12.52;5.50;;;;;;;24.84;55.80;96021.47;5114826;27;20024;-63
2022/05/29 08:17:28;;;;;;;17.10;5.95;;;;;;;25.18;55.31;96025.16;5096125;28;20516;-61
2022/05/29 08:19:53;;;;;;;7.43;4.65;;;;;;;25.03;52.38;96032.97;5096309;28;20024;-61
2022/05/29 08:22:19;;;;;;;15.27;5.30;;;;;;;24.85;54.88;96020.50;5096124;28;20501;-62
2022/05/29 08:30:37;;;;;;;15.60;4.70;;;;;;;24.27;52.91;96006.84;5096436;28;20045;-56
2022/05/29 08:33:10;;;;;;;12.88;4.45;;;;;;;24.26;53.42;95994.47;5096047;28;20103;-58
2022/05/29 08:35:37;;;;;;;13.50;4.78;;;;;;;24.23;54.02;95984.94;5111783;28;20430;-61
2022/05/29 08:38:04;;;;;;;12.70;4.38;;;;;;;24.68;55.30;95984.00;5116356;28;20023;-64
2022/05/29 08:40:31;;;;;;;9.45;4.10;;;;;;;24.61;52.74;95984.66;5116216;28;20023;-58
2022/05/29 08:42:58;;;;;;;15.38;4.55;;;;;;;24.58;53.38;95981.44;5116169;28;20110;-59
2022/05/29 08:45:27;;;;;;;7.97;4.35;;;;;;;24.76;51.63;95976.00;5104239;28;20043;-57
2022/05/29 08:47:53;;;;;;;17.85;4.15;;;;;;;24.93;49.33;95984.13;5095581;28;20474;-54
2022/05/29 08:50:23;;;;;;;10.63;4.38;;;;;;;25.13;50.67;95981.16;5095302;28;20097;-59
2022/05/29 08:53:01;;;;;;;14.65;3.80;;;;;;;25.44;50.38;95991.25;5095554;28;20027;-55
2022/05/29 08:55:37;;;;;;;13.00;4.32;;;;;;;25.55;50.30;95990.91;5096458;28;20036;-61
2022/05/29 08:58:25;;;;;;;15.55;3.92;;;;;;;25.26;48.69;95980.69;5095504;28;20020;-56
2022/05/29 09:01:06;;;;;;;12.80;4.10;;;;;;;25.41;49.29;95981.72;5095452;28;20043;-60
2022/05/29 09:03:58;;;;;;;11.73;4.00;;;;;;;25.64;49.49;95994.47;5094579;28;20103;-57
2022/05/29 09:06:43;;;;;;;10.13;3.45;;;;;;;25.83;48.89;95993.28;5096117;28;20118;-56
2022/05/29 09:09:42;;;;;;;8.63;3.53;;;;;;;26.10;49.67;95980.53;5095275;28;20100;-60
2022/05/29 09:12:16;;;;;;;10.38;3.97;;;;;;;26.35;48.64;95987.72;5095035;28;20512;-53
2022/05/29 09:14:52;;;;;;;11.75;4.15;;;;;;;26.29;46.29;95996.41;5106548;28;20024;-58
2022/05/29 09:17:17;;;;;;;7.65;3.78;;;;;;;25.99;46.32;95980.91;5115112;28;20054;-59
2022/05/29 09:20:01;;;;;;;8.90;3.63;;;;;;;25.96;46.68;95981.22;5095447;28;20068;-58
2022/05/29 09:22:33;;;;;;;13.25;4.45;;;;;;;25.99;48.55;95975.53;5094892;28;20063;-59
2022/05/29 09:25:05;;;;;;;18.10;5.38;;;;;;;26.11;47.43;95966.16;5095896;28;20036;-58
2022/05/29 09:27:31;;;;;;;13.15;4.80;;;;;;;26.16;44.97;95964.81;5094822;28;20024;-56
2022/05/29 09:29:57;;;;;;;18.85;7.95;;;;;;;26.30;48.42;95974.84;5094714;28;20150;-60
2022/05/29 09:32:32;;;;;;;21.08;8.43;;;;;;;26.45;48.65;95972.28;5094787;28;20024;-61
2022/05/29 09:35:16;;;;;;;14.63;4.50;;;;;;;26.54;46.43;95958.84;5100968;28;20070;-55
2022/05/29 09:37:53;;;;;;;14.40;4.25;;;;;;;26.44;46.04;95951.00;5115087;28;20031;-58
2022/05/29 09:40:32;;;;;;;6.95;3.33;;;;;;;26.64;47.17;95948.78;5115100;28;20023;-58
2022/05/29 09:43:16;;;;;;;12.05;3.47;;;;;;;26.65;47.05;95938.88;5111301;28;20138;-57
2022/05/29 09:45:42;;;;;;;10.07;4.05;;;;;;;26.71;47.51;95939.00;5114600;27;20034;-59
2022/05/29 09:51:17;;;;;;;12.13;4.30;;;;;;;27.09;46.62;95924.09;5099056;28;20047;-59
2022/05/29 09:53:48;;;;;;;10.15;4.75;;;;;;;27.21;45.95;95919.13;5094452;28;20028;-57
2022/05/29 09:56:22;;;;;;;13.40;4.07;;;;;;;26.80;47.29;95917.50;5094396;28;20101;-57
2022/05/29 09:58:52;;;;;;;11.88;3.88;;;;;;;26.94;47.65;95914.06;5094303;28;20028;-58
2022/05/29 10:01:27;;;;;;;16.63;4.20;;;;;;;27.11;45.63;95914.00;5095120;28;20071;-58
2022/05/29 10:03:55;;;;;;;10.82;4.05;;;;;;;27.13;46.39;95914.66;5094112;28;20070;-56
2022/05/29 10:06:31;;;;;;;11.82;4.07;;;;;;;27.04;44.95;95910.34;5094145;28;20497;-59
2022/05/29 10:09:21;;;;;;;9.32;3.67;;;;;;;26.54;45.29;95913.25;5094116;28;20024;-57
2022/05/29 10:11:52;;;;;;;15.73;4.40;;;;;;;26.49;49.25;95901.22;5094893;28;20035;-60
2022/05/29 10:14:24;;;;;;;11.43;4.25;;;;;;;26.83;47.47;95901.91;5093938;28;20556;-56
2022/05/29 10:16:53;;;;;;;13.32;4.25;;;;;;;26.73;45.11;95898.63;5094003;28;20059;-54
2022/05/29 10:19:51;;;;;;;9.15;2.90;;;;;;;26.61;45.16;95893.63;5093839;28;20032;-56
2022/05/29 10:22:26;;;;;;;13.00;3.67;;;;;;;26.77;45.75;95880.31;5058934;28;20055;-54
2022/05/29 10:24:54;;;;;;;11.23;4.20;;;;;;;26.97;44.54;95884.19;5093771;28;20381;-57
2022/05/29 10:27:30;;;;;;;10.63;3.42;;;;;;;27.13;42.85;95887.81;5093655;28;20540;-58
2022/05/29 10:30:07;;;;;;;15.93;3.90;;;;;;;27.15;44.59;95876.91;5093738;28;20101;-59
2022/05/29 10:32:36;;;;;;;10.88;3.60;;;;;;;27.07;44.00;95880.47;5104816;28;20031;-56
2022/05/29 10:35:11;;;;;;;12.40;3.58;;;;;;;27.17;44.57;95882.91;5113975;28;20119;-59
2022/05/29 10:37:40;;;;;;;12.10;3.50;;;;;;;27.19;44.86;95884.44;5113946;28;20036;-56
2022/05/29 10:40:31;;;;;;;10.15;3.60;;;;;;;27.16;43.72;95884.78;5113914;28;20015;-61
2022/05/29 10:43:01;;;;;;;10.85;3.38;;;;;;;27.05;42.00;95887.88;5101913;28;20126;-58
2022/05/29 10:45:40;;;;;;;9.75;3.65;;;;;;;26.98;42.62;95877.88;5093218;28;20142;-58
2022/05/29 10:48:29;;;;;;;9.95;3.47;;;;;;;26.94;43.27;95871.13;5093368;28;20075;-63
2022/05/29 10:51:12;;;;;;;10.98;3.33;;;;;;;27.07;43.43;95862.53;5064191;28;20060;-55
2022/05/29 10:54:02;;;;;;;12.02;3.63;;;;;;;27.26;43.32;95857.69;5107398;28;20048;-60
2022/05/29 10:57:06;;;;;;;10.48;4.28;;;;;;;27.42;42.21;95851.34;5113627;28;20032;-57
2022/05/29 10:59:51;;;;;;;12.52;3.67;;;;;;;27.61;43.97;95860.75;5113671;28;20385;-55
2022/05/29 11:05:11;;;;;;;10.85;3.40;;;;;;;27.60;44.54;95837.59;5093249;28;20081;-59
2022/05/29 11:08:00;;;;;;;13.70;3.60;;;;;;;27.46;43.73;95831.19;5093123;28;20482;-60
2022/05/29 11:10:44;;;;;;;7.80;3.00;;;;;;;27.38;44.70;95823.19;5093954;28;20252;-58
2022/05/29 11:13:27;;;;;;;11.50;3.55;;;;;;;27.37;43.74;95818.84;5093013;28;20146;-56
2022/05/29 11:16:14;;;;;;;15.10;3.72;;;;;;;27.27;45.16;95816.41;5093062;28;20431;-61
2022/05/29 11:19:01;;;;;;;18.70;3.97;;;;;;;27.40;44.09;95809.59;5093119;28;20107;-58
2022/05/29 11:21:54;;;;;;;9.55;3.67;;;;;;;27.42;44.38;95813.75;5094043;28;20036;-63
2022/05/29 11:24:46;;;;;;;16.13;3.92;;;;;;;27.27;45.28;95800.31;5093253;28;20434;-55
2022/05/29 11:27:25;;;;;;;9.75;3.20;;;;;;;27.45;43.76;95794.59;5096603;28;20047;-60
2022/05/29 11:30:09;;;;;;;10.85;3.67;;;;;;;27.49;42.94;95790.56;5097304;28;20107;-57
2022/05/29 11:33:11;;;;;;;7.05;3.20;;;;;;;27.32;44.20;95771.09;5098126;28;20055;-61
2022/05/29 11:36:03;;;;;;;10.88;3.40;;;;;;;27.56;45.49;95785.28;5086906;28;20044;-59
2022/05/29 11:39:01;;;;;;;12.77;3.88;;;;;;;27.70;44.73;95770.22;5108767;28;20020;-57
2022/05/29 11:41:47;;;;;;;12.32;4.78;;;;;;;27.84;42.61;95765.84;5105067;28;20117;-56
2022/05/29 11:44:28;;;;;;;8.77;4.20;;;;;;;27.73;44.42;95764.47;5115305;28;20040;-56
2022/05/29 11:52:42;;;;;;;9.10;3.95;;;;;;;27.89;42.85;95746.47;5099345;28;20132;-55
2022/05/29 11:55:14;;;;;;;10.10;3.90;;;;;;;28.16;44.72;95746.81;5096481;28;20051;-59
2022/05/29 11:58:13;;;;;;;10.15;4.53;;;;;;;28.16;44.08;95754.03;5096570;28;20016;-55
2022/05/29 12:01:11;;;;;;;16.50;4.60;;;;;;;28.10;43.22;95751.09;5096583;28;20097;-56
2022/05/29 12:03:46;;;;;;;13.23;4.55;;;;;;;27.97;44.46;95757.16;5095976;28;20046;-57
2022/05/29 12:06:34;;;;;;;12.05;4.95;;;;;;;27.71;44.83;95754.94;5115428;28;20032;-56
2022/05/29 12:09:03;;;;;;;13.95;4.90;;;;;;;27.60;44.52;95753.53;5116770;27;20485;-62
2022/05/29 12:11:41;;;;;;;14.05;5.22;;;;;;;27.57;45.83;95740.47;5108636;28;20118;-60
2022/05/29 12:14:16;;;;;;;12.32;4.93;;;;;;;27.33;45.60;95764.69;5096364;27;20043;-57
2022/05/29 12:16:45;;;;;;;11.90;4.88;;;;;;;27.33;47.23;95759.31;5096234;28;20027;-62
2022/05/29 12:19:22;;;;;;;14.65;5.15;;;;;;;27.38;47.87;95761.47;5096734;28;20047;-59
2022/05/29 12:21:53;;;;;;;11.65;5.05;;;;;;;27.57;47.11;95765.44;5096070;28;20115;-62
2022/05/29 12:24:28;;;;;;;11.50;4.85;;;;;;;27.85;46.37;95759.47;5110525;28;20024;-60
2022/05/29 12:27:02;;;;;;;7.85;4.78;;;;;;;27.91;45.99;95760.56;5120209;27;20011;-56
2022/05/29 12:29:34;;;;;;;13.27;4.50;;;;;;;27.62;45.84;95771.09;5127885;27;20393;-57